Zielona Gora, Poland

10:10 AM CEST on August 01, 2014 (GMT +0200)
Babimost (EPZG) Elev 194 ft | 52.14 °N, 15.80 °E | Change Station

Current weather conditions updated 10 minutes ago

Clear
Clear
73 °F
Feels Like 73 °F
N
6
Wind Variable Wind from ENE

Today is forecast to be nearly the same temperature as yesterday.

Today
High -- | Low -- °F
--% Chance of Precip.
Yesterday
High -- | Low -- °F
Precip. -- in
5:17 AM 8:47 PM
Waxing Crescent, 24% visible
Pressure 29.98 in
Visibility -9999.0 miles
Clouds
Dew Point 57 °F
Humidity 57%
Rainfall 0.00 in
Snow Depth Not available.
UV Not available.
Pollen Not available.
Air Quality Not available.
Flu Activity Not available.
METAR EPZG 010800Z 06005KT 030V110 CAVOK 23/14 Q1015

More Conditions Fewer Conditions

Pressure 29.98 in
Visibility -9999.0 miles
Clouds
Dew Point 57 °F
Humidity 57%
Rainfall 0.00 in
Snow Depth Not available.
UV Not available.
Pollen Not available.
Air Quality Not available.
Flu Activity Not available.
METAR EPZG 010800Z 06005KT 030V110 CAVOK 23/14 Q1015

More Conditions Fewer Conditions

10-Day Weather Forecast

Almanac

Astronomy

Aug. 01, 2014 Rise Set
Actual Time 5:17 AM CEST 8:47 PM CEST
Civil Twilight 4:36 AM CEST 9:28 PM CEST
Nautical Twilight 3:39 AM CEST 10:24 PM CEST
Astronomical Twilight 2:16 AM CEST 11:45 PM CEST
Moon 11:10 AM CEST 10:34 PM CEST
Length of Visible Light 16h 52m
Length of Day
15h 29m
Tomorrow will be 3m 15s shorter.
Waxing Crescent, 24% of the Moon is Illuminated
Today
Waxing Crescent
Aug 3
First Quarter
Aug 10
Full
Aug 17
Last Quarter
Aug 25
New

Yesterday's Extremes

Country Highs Country Lows

Community

WunderPhotos

Upload Photos

1,739,522 photos uploaded!

Nearby

Snow Depth

Not available.

Earthquake Activity

City Distance Mag. Time & Date
No recent earthquake activity has been reported nearby.
Minimum magnitude displayed is 2.5.

Coastal Water Temperatures

Place Temperature
No Stations Reporting

Nearby Weather Stations

Station Location Temp. Heat Index Dew Point Humidity Wind Precip. Elev Updated Type
Zielona Gora POLSKA, Zielona Góra 70.9 °F 75 °F 58 °F 63% WNW  at  0.9 mph 0.00 in / hr 449 ft 10:10 AM CEST Rapid Fire

Show More Stations Show Fewer Stations